Time;durP1;ratioP1;P1;durP2;ratioP2;P2;SDS_P1;SDS_P2;PMS_P1;PMS_P2;Temp;Humidity;BMP_temperature;BMP_pressure;BME280_temperature;BME280_humidity;BME280_pressure;Samples;Min_cycle;Max_cycle;Signal;HPM_P1;HPM_P2
2022/01/13 00:01:08;;;;;;;18.35;8.80;;;3.10;66.40;;;;;;5098278;28;20199;-79
2022/01/13 00:03:36;;;;;;;12.80;8.57;;;2.80;65.60;;;;;;5101135;28;20219;-79
2022/01/13 00:06:04;;;;;;;17.45;11.02;;;2.80;66.00;;;;;;5103702;28;20655;-79
2022/01/13 00:08:33;;;;;;;17.45;9.23;;;2.90;67.00;;;;;;5094112;28;20202;-79
2022/01/13 00:11:01;;;;;;;17.83;9.20;;;2.90;67.90;;;;;;5100106;28;20201;-79
2022/01/13 00:13:43;;;;;;;25.45;10.88;;;2.90;65.20;;;;;;5102236;28;20211;-80
2022/01/13 00:16:36;;;;;;;14.38;9.55;;;2.90;68.10;;;;;;5100954;28;20219;-79
2022/01/13 00:19:18;;;;;;;14.95;10.45;;;2.90;66.10;;;;;;5097448;28;20187;-79
2022/01/13 00:21:56;;;;;;;14.38;8.05;;;2.90;64.40;;;;;;5089743;28;20663;-78
2022/01/13 00:24:24;;;;;;;15.15;9.57;;;2.90;64.20;;;;;;5108082;28;20223;-79
2022/01/13 00:26:54;;;;;;;18.83;10.18;;;2.90;65.40;;;;;;5106190;28;20197;-79
2022/01/13 00:29:30;;;;;;;24.08;9.70;;;2.90;66.90;;;;;;5095548;28;20553;-78
2022/01/13 00:32:00;;;;;;;17.45;9.82;;;2.90;68.90;;;;;;5103741;28;20225;-79
2022/01/13 00:34:28;;;;;;;17.00;10.57;;;3.10;69.30;;;;;;5107596;28;20219;-78
2022/01/13 00:36:58;;;;;;;16.77;8.95;;;2.90;68.60;;;;;;5103302;28;20733;-78
2022/01/13 00:39:26;;;;;;;15.55;8.77;;;2.90;70.00;;;;;;5101727;28;20194;-78
2022/01/13 00:41:54;;;;;;;18.20;9.95;;;3.00;71.80;;;;;;5096095;28;20201;-78
2022/01/13 00:44:23;;;;;;;17.75;10.30;;;3.00;73.30;;;;;;5108794;28;20253;-78
2022/01/13 00:46:57;;;;;;;13.68;9.02;;;3.10;75.20;;;;;;5091748;28;20192;-80
2022/01/13 00:49:27;;;;;;;16.30;9.35;;;3.00;68.80;;;;;;5097500;28;20196;-78
2022/01/13 00:51:56;;;;;;;17.23;10.73;;;3.00;73.00;;;;;;5091035;28;20208;-79
2022/01/13 00:54:24;;;;;;;19.42;9.98;;;3.00;72.60;;;;;;5092486;28;20316;-80
2022/01/13 00:56:53;;;;;;;15.25;9.30;;;3.20;73.20;;;;;;5105646;28;20279;-79
2022/01/13 00:59:21;;;;;;;15.55;9.23;;;2.90;74.50;;;;;;5107849;28;20660;-79
2022/01/13 01:01:51;;;;;;;13.15;8.50;;;3.00;77.40;;;;;;5100211;28;20210;-80
2022/01/13 01:04:20;;;;;;;13.55;9.90;;;2.90;92.30;;;;;;5110095;27;20934;-78
2022/01/13 01:06:50;;;;;;;20.08;10.80;;;3.00;79.40;;;;;;5104114;28;20597;-79
2022/01/13 01:09:26;;;;;;;18.35;9.07;;;3.00;76.50;;;;;;5111086;28;20203;-79
2022/01/13 01:11:56;;;;;;;15.48;8.90;;;3.00;75.50;;;;;;5107359;28;20195;-79
2022/01/13 01:14:25;;;;;;;14.60;9.00;;;3.30;75.70;;;;;;5108103;28;20224;-79
2022/01/13 01:16:53;;;;;;;17.38;8.52;;;3.00;75.70;;;;;;5107326;28;20628;-78
2022/01/13 01:19:27;;;;;;;17.20;9.48;;;3.00;76.80;;;;;;5111086;28;20204;-79
2022/01/13 01:27:35;;;;;;;14.35;9.02;;;3.00;76.20;;;;;;5111028;28;20195;-78
2022/01/13 01:30:09;;;;;;;15.50;9.00;;;3.00;76.90;;;;;;5100068;28;20235;-79
2022/01/13 01:32:39;;;;;;;13.95;8.65;;;3.00;78.60;;;;;;5105834;28;20517;-79
2022/01/13 01:35:13;;;;;;;13.50;8.60;;;3.00;80.60;;;;;;5107558;28;20227;-78
2022/01/13 01:37:44;;;;;;;14.63;8.68;;;3.00;79.70;;;;;;5101859;28;20298;-78
2022/01/13 01:40:15;;;;;;;14.32;8.10;;;3.00;81.10;;;;;;5108418;28;20290;-79
2022/01/13 01:42:45;;;;;;;14.25;8.80;;;2.90;95.30;;;;;;5111559;28;20654;-80
2022/01/13 01:45:15;;;;;;;12.43;9.20;;;2.90;83.70;;;;;;5110126;28;20223;-78
2022/01/13 01:47:44;;;;;;;13.93;9.57;;;3.00;88.90;;;;;;5094504;28;20203;-79
2022/01/13 01:50:18;;;;;;;12.45;9.00;;;3.10;90.70;;;;;;5108961;28;20279;-79
2022/01/13 01:52:49;;;;;;;16.10;9.88;;;3.20;98.60;;;;;;5096479;28;20208;-79
2022/01/13 01:55:19;;;;;;;18.58;9.35;;;3.20;91.50;;;;;;5093870;28;20224;-79
2022/01/13 01:57:50;;;;;;;18.33;10.45;;;3.20;91.90;;;;;;5100012;28;20228;-81
2022/01/13 02:00:21;;;;;;;18.20;9.85;;;3.30;92.10;;;;;;5104373;28;20192;-80
2022/01/13 02:02:50;;;;;;;21.48;10.07;;;3.40;94.00;;;;;;5104834;28;20205;-80
2022/01/13 02:05:18;;;;;;;17.33;10.25;;;3.30;93.40;;;;;;5109889;28;20212;-79
2022/01/13 02:07:48;;;;;;;16.17;9.13;;;3.30;94.20;;;;;;5094857;28;20200;-79
2022/01/13 02:10:17;;;;;;;14.52;9.98;;;3.40;94.50;;;;;;5091271;27;20232;-79
2022/01/13 02:12:49;;;;;;;17.20;10.73;;;3.40;94.20;;;;;;5092078;28;20212;-79
2022/01/13 02:15:35;;;;;;;18.27;9.77;;;3.40;94.10;;;;;;5095469;28;20563;-78
2022/01/13 02:18:07;;;;;;;12.60;8.35;;;3.40;93.90;;;;;;5090061;28;20220;-81
2022/01/13 02:20:48;;;;;;;11.93;8.80;;;3.40;93.60;;;;;;5090479;28;20191;-79
2022/01/13 02:23:33;;;;;;;13.80;9.50;;;3.40;93.40;;;;;;5094975;28;20203;-77
2022/01/13 02:26:02;;;;;;;16.50;10.32;;;3.50;93.90;;;;;;5090157;28;20207;-77
2022/01/13 02:28:31;;;;;;;14.10;9.40;;;3.30;93.60;;;;;;5088760;28;20224;-79
2022/01/13 02:30:59;;;;;;;12.50;9.95;;;3.60;94.10;;;;;;5090109;28;20205;-77
2022/01/13 02:33:28;;;;;;;15.40;10.38;;;3.40;93.80;;;;;;5092213;28;20206;-79
2022/01/13 02:35:57;;;;;;;21.90;11.82;;;3.30;93.70;;;;;;5096501;28;20203;-78
2022/01/13 02:38:26;;;;;;;22.70;11.05;;;3.30;94.00;;;;;;5090319;28;20219;-78
2022/01/13 02:40:55;;;;;;;18.85;10.75;;;3.10;93.80;;;;;;5088868;28;20199;-80
2022/01/13 02:43:24;;;;;;;18.20;10.73;;;3.10;93.60;;;;;;5090035;28;20204;-80
2022/01/13 02:46:06;;;;;;;15.10;10.35;;;3.30;93.60;;;;;;5091514;28;20217;-78
2022/01/13 02:48:36;;;;;;;17.10;10.10;;;3.30;93.60;;;;;;5100496;27;20281;-78
2022/01/13 02:51:06;;;;;;;20.10;10.05;;;3.40;94.20;;;;;;5092731;28;20239;-78
2022/01/13 02:53:34;;;;;;;18.08;10.35;;;3.30;94.40;;;;;;5087996;28;20644;-78
2022/01/13 02:56:04;;;;;;;16.33;9.10;;;3.40;99.90;;;;;;5089437;28;20188;-78
2022/01/13 02:58:35;;;;;;;19.50;9.88;;;3.50;94.40;;;;;;5105860;28;20219;-77
2022/01/13 03:01:05;;;;;;;15.50;9.65;;;3.50;93.80;;;;;;5109292;28;20210;-78
2022/01/13 03:03:35;;;;;;;13.40;9.23;;;3.40;93.80;;;;;;5096824;28;20215;-78
2022/01/13 03:06:09;;;;;;;14.93;8.63;;;3.70;94.30;;;;;;5101243;28;20201;-79
2022/01/13 03:08:38;;;;;;;15.68;8.45;;;3.50;95.30;;;;;;5091217;28;20694;-77
2022/01/13 03:11:06;;;;;;;14.70;9.95;;;3.50;99.90;;;;;;5092192;28;20206;-78
2022/01/13 03:13:34;;;;;;;11.85;8.35;;;3.50;97.60;;;;;;5088856;28;20194;-79
2022/01/13 03:16:07;;;;;;;16.75;9.85;;;3.60;98.10;;;;;;5091792;28;20201;-80
2022/01/13 03:18:35;;;;;;;15.77;10.60;;;3.60;98.20;;;;;;5093292;28;21561;-79
2022/01/13 03:21:04;;;;;;;16.08;9.32;;;3.60;99.90;;;;;;5087024;28;20200;-79
2022/01/13 03:23:33;;;;;;;15.52;8.77;;;3.60;99.90;;;;;;5089692;28;20212;-79
2022/01/13 03:26:02;;;;;;;14.05;8.52;;;3.70;99.90;;;;;;5090394;28;20266;-78
2022/01/13 03:28:37;;;;;;;17.77;9.13;;;3.80;99.90;;;;;;5088182;28;20195;-78
2022/01/13 03:31:07;;;;;;;12.02;9.25;;;3.80;99.90;;;;;;5088863;28;20207;-77
2022/01/13 03:33:36;;;;;;;14.63;9.45;;;3.70;99.90;;;;;;5088773;28;20189;-78
2022/01/13 03:36:04;;;;;;;16.65;8.48;;;3.80;99.90;;;;;;5090081;28;20629;-79
2022/01/13 03:38:34;;;;;;;15.75;10.20;;;3.80;99.90;;;;;;5092580;28;20301;-79
2022/01/13 03:41:03;;;;;;;12.98;9.68;;;3.80;99.90;;;;;;5087691;28;20205;-79
2022/01/13 03:43:32;;;;;;;16.60;10.15;;;3.80;99.90;;;;;;5091808;28;20335;-78
2022/01/13 03:46:00;;;;;;;21.02;10.43;;;3.80;99.90;;;;;;5090730;27;20206;-79
2022/01/13 03:48:28;;;;;;;18.13;9.30;;;3.90;99.90;;;;;;5087096;28;20242;-78
2022/01/13 03:50:57;;;;;;;11.55;8.77;;;3.80;99.90;;;;;;5090293;28;20763;-78
2022/01/13 03:54:10;;;;;;;15.95;8.23;;;4.00;99.90;;;;;;5088976;28;20198;-78
2022/01/13 03:57:27;;;;;;;12.65;9.10;;;3.90;99.90;;;;;;5053597;28;20208;-78
2022/01/13 04:00:40;;;;;;;11.93;8.90;;;4.00;99.90;;;;;;5089666;28;20207;-78
2022/01/13 04:03:08;;;;;;;15.93;9.32;;;3.90;99.90;;;;;;5089170;28;20216;-78
2022/01/13 04:06:00;;;;;;;13.65;9.13;;;4.00;99.90;;;;;;5088581;28;20326;-79
2022/01/13 04:08:29;;;;;;;16.15;9.40;;;3.90;99.90;;;;;;5087766;28;20213;-78
2022/01/13 04:11:14;;;;;;;14.02;9.82;;;3.80;99.90;;;;;;5088305;28;20343;-79
2022/01/13 04:13:48;;;;;;;19.52;10.80;;;3.80;99.90;;;;;;5086646;28;20225;-78
2022/01/13 04:16:18;;;;;;;12.82;9.20;;;3.90;99.90;;;;;;5093263;28;20199;-78
2022/01/13 04:18:47;;;;;;;13.07;9.30;;;3.80;99.90;;;;;;5102033;28;20594;-78
2022/01/13 04:21:16;;;;;;;15.48;9.98;;;3.80;99.90;;;;;;5095443;28;20246;-78
2022/01/13 04:23:45;;;;;;;15.10;10.85;;;4.10;99.90;;;;;;5094872;28;20218;-78
2022/01/13 04:26:18;;;;;;;11.52;8.13;;;3.80;99.90;;;;;;5091790;28;20604;-78
2022/01/13 04:28:51;;;;;;;13.15;8.10;;;3.80;99.90;;;;;;5087682;28;20192;-78
2022/01/13 04:31:19;;;;;;;15.20;8.10;;;3.80;99.90;;;;;;5087783;28;20221;-79
2022/01/13 04:33:47;;;;;;;14.32;9.13;;;3.80;99.90;;;;;;5092325;27;20220;-80
2022/01/13 04:36:16;;;;;;;18.65;8.95;;;3.90;99.90;;;;;;5093102;28;20208;-78
2022/01/13 04:38:44;;;;;;;12.32;8.13;;;3.90;99.90;;;;;;5091315;27;20223;-79
2022/01/13 04:41:14;;;;;;;11.50;8.27;;;4.00;99.90;;;;;;5096295;28;20211;-78
2022/01/13 04:43:43;;;;;;;13.52;9.05;;;4.20;99.90;;;;;;5089369;28;20221;-79
2022/01/13 04:46:12;;;;;;;15.52;8.30;;;3.90;99.90;;;;;;5092619;28;20466;-79
2022/01/13 04:48:41;;;;;;;17.00;11.65;;;3.90;99.90;;;;;;5089334;27;20456;-78
2022/01/13 04:51:09;;;;;;;16.60;9.45;;;3.90;99.90;;;;;;5092709;28;20564;-78
2022/01/13 04:53:37;;;;;;;15.80;9.10;;;3.90;99.90;;;;;;5087743;28;20273;-78
2022/01/13 04:56:11;;;;;;;15.45;8.65;;;3.80;99.90;;;;;;5097197;28;20216;-79
2022/01/13 04:58:39;;;;;;;21.27;9.00;;;3.80;99.90;;;;;;5090475;28;20215;-78
2022/01/13 05:01:08;;;;;;;12.32;7.55;;;3.80;99.90;;;;;;5091100;27;20802;-78
2022/01/13 05:03:38;;;;;;;17.73;9.50;;;4.00;99.90;;;;;;5091483;28;20690;-78
2022/01/13 05:06:06;;;;;;;17.20;8.25;;;3.90;99.90;;;;;;5095187;27;20241;-78
2022/01/13 05:08:34;;;;;;;11.30;8.45;;;3.80;99.90;;;;;;5096746;28;20189;-78
2022/01/13 05:11:02;;;;;;;13.35;8.63;;;3.80;99.90;;;;;;5096090;28;20192;-80
2022/01/13 05:13:30;;;;;;;18.40;9.00;;;3.90;99.90;;;;;;5094930;28;20199;-81
2022/01/13 05:15:58;;;;;;;11.77;7.70;;;3.90;99.90;;;;;;5095868;27;20660;-80
2022/01/13 05:18:40;;;;;;;15.52;9.20;;;3.90;99.90;;;;;;5100096;28;20193;-80
2022/01/13 05:21:20;;;;;;;14.70;8.23;;;3.90;99.90;;;;;;5107229;28;20202;-79
2022/01/13 05:23:49;;;;;;;15.30;9.32;;;3.90;99.90;;;;;;5112083;28;20233;-79
2022/01/13 05:26:17;;;;;;;14.07;9.73;;;4.00;99.90;;;;;;5111251;28;20211;-79
2022/01/13 05:28:45;;;;;;;10.25;8.02;;;3.90;99.90;;;;;;5097957;28;20292;-79
2022/01/13 05:31:13;;;;;;;16.75;9.43;;;3.90;99.90;;;;;;5109984;28;20197;-80
2022/01/13 05:33:42;;;;;;;17.65;8.75;;;3.90;99.90;;;;;;5110552;28;20217;-81
2022/01/13 05:36:12;;;;;;;21.63;10.50;;;3.80;99.90;;;;;;5107278;28;20190;-78
2022/01/13 05:38:43;;;;;;;13.27;9.60;;;4.10;99.90;;;;;;5106095;28;20208;-80
2022/01/13 05:41:11;;;;;;;15.95;10.63;;;3.90;99.90;;;;;;5113127;28;20604;-79
2022/01/13 05:43:39;;;;;;;15.82;9.07;;;4.10;99.90;;;;;;5111584;28;20241;-79
2022/01/13 05:46:07;;;;;;;12.20;7.45;;;3.80;99.90;;;;;;5107193;28;20209;-79
2022/01/13 05:48:35;;;;;;;13.25;9.77;;;4.00;99.90;;;;;;5108379;28;20222;-79
2022/01/13 05:51:07;;;;;;;15.50;8.85;;;3.80;99.90;;;;;;5099259;28;20449;-78
2022/01/13 05:53:37;;;;;;;14.18;9.18;;;3.90;99.90;;;;;;5105565;28;20201;-79
2022/01/13 05:56:05;;;;;;;15.88;8.07;;;3.70;99.90;;;;;;5101632;28;20193;-80
2022/01/13 05:58:33;;;;;;;16.95;8.82;;;3.70;99.90;;;;;;5105484;28;20204;-79
2022/01/13 06:01:02;;;;;;;15.52;9.95;;;3.70;99.90;;;;;;5106817;27;20256;-78
2022/01/13 06:03:30;;;;;;;17.67;10.55;;;3.70;99.90;;;;;;5102536;27;20249;-80
2022/01/13 06:05:59;;;;;;;14.38;9.13;;;3.70;99.90;;;;;;5106553;27;20203;-79
2022/01/13 06:08:27;;;;;;;13.60;8.48;;;3.70;99.90;;;;;;5104423;27;20230;-79
2022/01/13 06:10:57;;;;;;;15.13;9.85;;;3.70;99.90;;;;;;5096964;28;20200;-80
2022/01/13 06:13:25;;;;;;;15.10;9.10;;;3.70;99.90;;;;;;5106457;27;20191;-80
2022/01/13 06:15:53;;;;;;;16.95;9.48;;;3.70;99.90;;;;;;5102559;27;20205;-79
2022/01/13 06:18:24;;;;;;;16.80;11.02;;;3.70;99.90;;;;;;5103938;27;20199;-80
2022/01/13 06:20:53;;;;;;;17.15;9.45;;;3.70;99.90;;;;;;5112479;27;20227;-80
2022/01/13 06:23:21;;;;;;;19.58;9.07;;;3.70;99.90;;;;;;5113594;27;20723;-80
2022/01/13 06:25:49;;;;;;;12.65;8.95;;;3.60;99.90;;;;;;5112653;27;20202;-79
2022/01/13 06:28:19;;;;;;;14.95;10.18;;;3.60;99.90;;;;;;5110881;27;20203;-78
2022/01/13 06:30:47;;;;;;;14.10;9.82;;;3.60;99.90;;;;;;5102680;27;20243;-78
2022/01/13 06:33:15;;;;;;;13.85;10.27;;;3.60;99.90;;;;;;5108098;28;20207;-79
2022/01/13 06:35:43;;;;;;;12.80;9.75;;;3.50;99.90;;;;;;5109441;27;20266;-79
2022/01/13 06:38:11;;;;;;;12.75;8.40;;;3.50;99.90;;;;;;5106875;27;20850;-79
2022/01/13 06:40:40;;;;;;;15.98;8.32;;;3.40;99.90;;;;;;5104386;27;20207;-80
2022/01/13 06:43:08;;;;;;;14.20;9.68;;;3.40;99.90;;;;;;5109496;27;20732;-79
2022/01/13 06:45:37;;;;;;;12.73;9.95;;;3.40;99.90;;;;;;5105605;27;20223;-78
2022/01/13 06:48:06;;;;;;;15.43;9.68;;;3.40;99.90;;;;;;5098312;28;20202;-78
2022/01/13 06:50:34;;;;;;;13.60;9.10;;;3.40;99.90;;;;;;5102457;27;20205;-79
2022/01/13 06:53:03;;;;;;;13.77;8.95;;;3.40;99.90;;;;;;5102547;28;20596;-80
2022/01/13 06:55:31;;;;;;;15.82;9.63;;;3.60;99.90;;;;;;5113199;27;20721;-79
2022/01/13 06:58:00;;;;;;;12.23;8.13;;;3.40;99.90;;;;;;5098393;27;20204;-80
2022/01/13 07:00:28;;;;;;;15.15;9.98;;;3.30;99.90;;;;;;5104011;27;20236;-79
2022/01/13 07:02:59;;;;;;;12.77;8.60;;;3.40;99.90;;;;;;5099504;28;20224;-79
2022/01/13 07:05:27;;;;;;;14.55;8.75;;;3.40;99.90;;;;;;5104437;28;20315;-79
2022/01/13 07:07:56;;;;;;;15.20;9.50;;;3.40;99.90;;;;;;5122915;27;20497;-81
2022/01/13 07:10:24;;;;;;;17.10;11.00;;;3.20;99.90;;;;;;5106245;27;20605;-80
2022/01/13 07:12:53;;;;;;;15.05;10.10;;;3.30;99.90;;;;;;5103141;27;20884;-79
2022/01/13 07:15:21;;;;;;;14.85;9.93;;;3.40;99.90;;;;;;5103314;28;21049;-78
2022/01/13 07:17:49;;;;;;;20.25;11.00;;;3.70;99.90;;;;;;5100913;27;20209;-79
2022/01/13 07:20:19;;;;;;;14.23;9.52;;;3.40;99.90;;;;;;5108308;27;20203;-80
2022/01/13 07:22:47;;;;;;;16.55;10.00;;;3.40;99.90;;;;;;5096475;28;20207;-78
2022/01/13 07:25:15;;;;;;;12.00;8.68;;;3.40;99.90;;;;;;5103983;27;20713;-79
2022/01/13 07:27:44;;;;;;;15.77;10.23;;;3.40;99.90;;;;;;5098378;28;20206;-79
2022/01/13 07:30:13;;;;;;;17.25;9.43;;;3.60;99.90;;;;;;5096979;28;20192;-79
2022/01/13 07:32:42;;;;;;;12.07;8.68;;;3.30;99.90;;;;;;5101833;28;20683;-79
2022/01/13 07:35:11;;;;;;;16.00;11.18;;;3.30;99.90;;;;;;5100303;28;20244;-78
2022/01/13 07:37:42;;;;;;;14.10;8.93;;;3.30;99.90;;;;;;5101343;27;20184;-80
2022/01/13 07:40:13;;;;;;;16.42;9.95;;;3.30;99.90;;;;;;5100707;28;20205;-78
2022/01/13 07:42:43;;;;;;;16.15;9.60;;;3.30;99.90;;;;;;5105020;27;20840;-79
2022/01/13 07:45:12;;;;;;;13.93;9.75;;;3.20;99.90;;;;;;5102071;28;20213;-80
2022/01/13 07:47:41;;;;;;;13.20;8.32;;;3.10;99.90;;;;;;5100610;28;20371;-79
2022/01/13 07:50:12;;;;;;;17.55;9.98;;;3.20;99.90;;;;;;5100631;28;20199;-79
2022/01/13 07:52:42;;;;;;;10.93;7.85;;;3.20;99.90;;;;;;5096990;27;21003;-79
2022/01/13 07:55:11;;;;;;;13.02;9.13;;;3.20;99.90;;;;;;5103066;27;20219;-78
2022/01/13 07:57:39;;;;;;;10.63;7.30;;;3.10;99.90;;;;;;5099292;28;20609;-78
2022/01/13 08:00:11;;;;;;;14.23;8.88;;;3.10;99.90;;;;;;5097952;28;20194;-79
2022/01/13 08:02:39;;;;;;;14.20;8.02;;;3.10;99.90;;;;;;5101930;28;20193;-79
2022/01/13 08:05:09;;;;;;;13.95;8.73;;;3.40;99.90;;;;;;5098013;28;20294;-79
2022/01/13 08:07:38;;;;;;;17.00;7.22;;;3.20;99.90;;;;;;5104565;28;20208;-77
2022/01/13 08:10:08;;;;;;;17.13;10.70;;;3.20;99.90;;;;;;5102777;28;20191;-80
2022/01/13 08:12:37;;;;;;;16.92;10.27;;;3.30;99.90;;;;;;5101998;28;20196;-79
2022/01/13 08:15:08;;;;;;;16.27;9.52;;;3.50;99.90;;;;;;5103082;28;20238;-77
2022/01/13 08:20:22;;;;;;;14.15;9.52;;;3.60;99.90;;;;;;5097762;28;20286;-78
2022/01/13 08:22:50;;;;;;;14.70;9.95;;;3.70;99.90;;;;;;5104762;28;20231;-78
2022/01/13 08:25:21;;;;;;;14.00;9.73;;;3.80;99.90;;;;;;5095008;28;20653;-81
2022/01/13 08:27:50;;;;;;;22.30;10.27;;;3.90;99.90;;;;;;5101446;28;20210;-80
2022/01/13 08:30:18;;;;;;;11.57;7.97;;;4.00;99.90;;;;;;5104072;28;20247;-77
2022/01/13 08:32:46;;;;;;;12.05;8.15;;;4.00;99.90;;;;;;5104738;28;20187;-79
2022/01/13 08:35:15;;;;;;;16.38;10.65;;;4.00;99.90;;;;;;5102220;28;20322;-79
2022/01/13 08:37:43;;;;;;;15.68;9.07;;;4.00;99.90;;;;;;5104264;28;20272;-79
2022/01/13 08:40:15;;;;;;;14.63;9.50;;;3.90;99.90;;;;;;5105483;28;20217;-79
2022/01/13 08:42:45;;;;;;;20.17;11.25;;;3.90;99.90;;;;;;5101911;28;20266;-79
2022/01/13 08:45:14;;;;;;;14.40;10.25;;;4.00;99.90;;;;;;5101492;28;20225;-79
2022/01/13 08:47:44;;;;;;;13.75;10.30;;;4.10;99.90;;;;;;5103091;28;20269;-80
2022/01/13 08:50:13;;;;;;;14.25;9.57;;;4.10;99.90;;;;;;5099296;28;20201;-80
2022/01/13 08:52:42;;;;;;;17.25;10.15;;;4.20;99.90;;;;;;5101056;28;20199;-79
2022/01/13 08:55:10;;;;;;;17.40;10.00;;;4.50;99.90;;;;;;5098669;28;20217;-79
2022/01/13 08:57:38;;;;;;;17.00;9.95;;;4.30;99.90;;;;;;5102308;28;20289;-79
2022/01/13 09:00:11;;;;;;;14.70;11.52;;;4.20;99.90;;;;;;5101173;28;20202;-79
2022/01/13 09:02:41;;;;;;;10.70;9.30;;;4.10;99.90;;;;;;5101784;28;20287;-80
2022/01/13 09:05:11;;;;;;;22.25;13.07;;;4.20;99.90;;;;;;5102468;28;20217;-79
2022/01/13 09:07:40;;;;;;;14.48;10.15;;;4.30;99.90;;;;;;5100510;28;20206;-79
2022/01/13 09:10:10;;;;;;;18.75;11.80;;;4.30;99.90;;;;;;5098095;28;20243;-78
2022/01/13 09:12:39;;;;;;;19.13;11.15;;;4.30;99.90;;;;;;5099150;28;20571;-78
2022/01/13 09:15:30;;;;;;;15.40;9.32;;;4.30;99.90;;;;;;5104210;28;20215;-79
2022/01/13 09:17:59;;;;;;;20.08;10.90;;;4.40;99.90;;;;;;5103993;28;20201;-80
2022/01/13 09:20:28;;;;;;;14.13;10.20;;;4.50;99.90;;;;;;5105451;28;20245;-79
2022/01/13 09:22:56;;;;;;;11.48;8.82;;;4.60;99.90;;;;;;5110362;28;20323;-79
2022/01/13 09:25:24;;;;;;;15.70;9.77;;;4.60;99.90;;;;;;5109113;27;20218;-80
2022/01/13 09:27:52;;;;;;;17.10;10.55;;;4.70;99.90;;;;;;5101934;28;20212;-77
2022/01/13 09:30:22;;;;;;;11.60;7.78;;;4.80;99.90;;;;;;5107070;27;20211;-78
2022/01/13 09:32:51;;;;;;;14.85;9.07;;;4.70;99.90;;;;;;5114266;27;20192;-80
2022/01/13 09:35:19;;;;;;;15.40;8.40;;;4.70;99.90;;;;;;5110471;27;20221;-79
2022/01/13 09:37:48;;;;;;;8.70;6.47;;;4.70;99.90;;;;;;5113385;27;20196;-80
2022/01/13 09:40:17;;;;;;;10.25;6.72;;;4.60;99.90;;;;;;5108205;28;20201;-80
2022/01/13 09:42:46;;;;;;;11.32;7.35;;;4.70;99.90;;;;;;5107366;27;20693;-80
2022/01/13 09:45:17;;;;;;;11.15;7.47;;;4.80;99.90;;;;;;5108656;27;20294;-80
2022/01/13 09:47:48;;;;;;;17.60;10.40;;;4.90;99.90;;;;;;5103658;27;21009;-80
2022/01/13 09:50:20;;;;;;;17.65;8.32;;;5.00;99.90;;;;;;5112105;28;20215;-80
2022/01/13 09:52:49;;;;;;;10.73;7.30;;;5.20;99.90;;;;;;5115658;27;20236;-80
2022/01/13 09:55:19;;;;;;;14.00;8.13;;;5.50;99.90;;;;;;5113907;27;20220;-80
2022/01/13 09:57:50;;;;;;;14.73;7.70;;;5.70;99.90;;;;;;5109277;27;20233;-80
2022/01/13 10:00:20;;;;;;;11.75;8.15;;;5.80;99.90;;;;;;5106525;27;20889;-79
2022/01/13 10:02:50;;;;;;;14.98;10.15;;;6.10;99.90;;;;;;5108222;27;20475;-82
2022/01/13 10:05:19;;;;;;;14.13;9.33;;;6.50;99.90;;;;;;5112290;27;20698;-80
2022/01/13 10:07:50;;;;;;;12.43;8.88;;;6.40;99.90;;;;;;5112021;27;20449;-80
2022/01/13 10:10:27;;;;;;;14.93;8.00;;;6.60;99.90;;;;;;5101945;28;20626;-80
2022/01/13 10:13:04;;;;;;;16.30;9.10;;;6.80;99.90;;;;;;5108686;27;20460;-80
2022/01/13 10:18:39;;;;;;;12.30;8.53;;;7.30;99.90;;;;;;5111062;27;20483;-80
2022/01/13 10:21:09;;;;;;;9.57;6.00;;;7.60;98.60;;;;;;5111354;27;21144;-80
2022/01/13 10:23:37;;;;;;;8.87;6.73;;;8.00;97.90;;;;;;5112568;27;21108;-80
2022/01/13 10:26:10;;;;;;;12.20;7.07;;;8.20;96.50;;;;;;5112303;27;20446;-80
2022/01/13 10:28:39;;;;;;;10.60;6.97;;;8.20;95.90;;;;;;5113093;27;20441;-80
2022/01/13 10:31:08;;;;;;;12.80;8.00;;;8.50;96.40;;;;;;5108881;28;20480;-80
2022/01/13 10:33:38;;;;;;;6.47;5.80;;;8.50;96.20;;;;;;5108177;28;20795;-80
2022/01/13 10:36:10;;;;;;;9.73;6.80;;;8.60;96.40;;;;;;5102077;27;20461;-81
2022/01/13 10:38:51;;;;;;;8.47;6.50;;;8.70;96.30;;;;;;5109985;28;20536;-80
2022/01/13 10:41:35;;;;;;;9.50;6.87;;;8.90;96.00;;;;;;5104003;28;20953;-80
2022/01/13 10:44:21;;;;;;;10.90;7.30;;;9.00;96.00;;;;;;5106694;28;20895;-80
2022/01/13 10:47:00;;;;;;;8.23;6.77;;;9.10;95.40;;;;;;5114152;27;20452;-82
2022/01/13 10:49:35;;;;;;;11.90;7.10;;;9.30;96.50;;;;;;5108337;28;20449;-80
2022/01/13 10:52:18;;;;;;;10.10;6.87;;;9.30;99.90;;;;;;5104662;28;20861;-81
2022/01/13 10:54:47;;;;;;;7.33;6.43;;;9.50;95.00;;;;;;5112537;27;20480;-79
2022/01/13 10:57:20;;;;;;;8.43;6.97;;;9.60;97.10;;;;;;5102041;28;20519;-80
2022/01/13 10:59:48;;;;;;;7.87;6.50;;;9.70;97.00;;;;;;5100660;27;20452;-81
2022/01/13 11:02:18;;;;;;;10.10;6.37;;;9.80;97.00;;;;;;5106920;27;20469;-81
2022/01/13 11:04:48;;;;;;;11.97;8.10;;;10.00;96.60;;;;;;5112773;28;20549;-80
2022/01/13 11:07:18;;;;;;;9.40;6.13;;;10.10;97.30;;;;;;5106353;27;20482;-80
2022/01/13 11:09:53;;;;;;;9.60;6.90;;;10.10;96.50;;;;;;5104267;28;20429;-81
2022/01/13 11:12:29;;;;;;;12.70;6.93;;;10.10;96.20;;;;;;5103754;27;20454;-81
2022/01/13 11:15:02;;;;;;;8.00;5.60;;;10.30;96.10;;;;;;5107134;27;20475;-81
2022/01/13 11:17:33;;;;;;;7.50;6.27;;;10.40;97.30;;;;;;5118333;27;20439;-80
2022/01/13 11:20:04;;;;;;;8.50;5.83;;;10.60;96.70;;;;;;5107202;27;20502;-82
2022/01/13 11:22:35;;;;;;;10.30;6.90;;;10.60;96.30;;;;;;5108870;28;20468;-82
2022/01/13 11:25:04;;;;;;;11.50;6.93;;;10.70;96.50;;;;;;5111624;28;20493;-82
2022/01/13 11:27:32;;;;;;;12.07;7.33;;;10.80;96.50;;;;;;5105466;27;20853;-83
2022/01/13 11:30:01;;;;;;;10.07;7.33;;;11.00;97.40;;;;;;5113119;27;20454;-82
2022/01/13 11:32:30;;;;;;;9.83;6.53;;;11.20;96.70;;;;;;5106739;27;20453;-81
2022/01/13 11:34:59;;;;;;;11.23;7.40;;;11.30;97.50;;;;;;5122290;27;20904;-83
2022/01/13 11:37:30;;;;;;;8.43;6.27;;;11.40;97.20;;;;;;5110278;27;20453;-79
2022/01/13 11:39:59;;;;;;;9.00;6.67;;;11.40;97.00;;;;;;5103149;27;20461;-83
2022/01/13 11:42:47;;;;;;;10.93;8.15;;;11.30;97.80;;;;;;5098335;28;20464;-81
2022/01/13 11:45:18;;;;;;;10.47;7.60;;;11.00;93.90;;;;;;5105333;27;20220;-81
2022/01/13 11:47:46;;;;;;;8.90;7.00;;;10.90;81.30;;;;;;5103346;27;20997;-81
2022/01/13 11:50:19;;;;;;;10.50;7.07;;;10.70;90.70;;;;;;5112182;27;20453;-81
2022/01/13 11:52:52;;;;;;;10.95;8.82;;;10.60;90.50;;;;;;5107619;27;20501;-83
2022/01/13 11:55:26;;;;;;;12.10;6.80;;;10.50;87.30;;;;;;5104950;27;20241;-81
2022/01/13 11:58:16;;;;;;;8.70;5.80;;;10.50;89.10;;;;;;5105491;28;20464;-81
2022/01/13 12:00:46;;;;;;;10.10;6.27;;;10.40;89.50;;;;;;5119861;27;20827;-81
2022/01/13 12:03:26;;;;;;;11.67;6.97;;;10.40;88.80;;;;;;5124540;27;20467;-81
2022/01/13 12:05:56;;;;;;;9.80;6.80;;;10.20;84.80;;;;;;5098939;28;20831;-81
2022/01/13 12:08:44;;;;;;;9.10;6.43;;;10.10;83.50;;;;;;5101592;27;20453;-80
2022/01/13 12:11:46;;;;;;;5.33;4.80;;;10.20;89.60;;;;;;5114491;27;20949;-81
2022/01/13 12:14:41;;;;;;;6.57;5.30;;;10.20;91.40;;;;;;5118135;28;20789;-81
2022/01/13 12:17:24;;;;;;;5.95;4.78;;;10.40;92.50;;;;;;5101441;28;20472;-81
2022/01/13 12:20:01;;;;;;;7.50;4.57;;;10.40;93.10;;;;;;5103362;28;20201;-83
2022/01/13 12:22:42;;;;;;;7.30;5.17;;;10.40;93.30;;;;;;5115989;27;20463;-82
2022/01/13 12:25:12;;;;;;;7.53;5.00;;;10.40;92.90;;;;;;5112254;28;20468;-81
2022/01/13 12:27:49;;;;;;;8.00;5.00;;;10.50;93.20;;;;;;5103096;28;20451;-81
2022/01/13 12:30:24;;;;;;;5.90;4.63;;;10.50;93.00;;;;;;5101480;28;20530;-81
2022/01/13 12:32:54;;;;;;;5.70;4.03;;;10.50;93.70;;;;;;5102341;28;20455;-83
2022/01/13 12:35:48;;;;;;;5.17;4.67;;;10.60;94.20;;;;;;5110232;28;20495;-82
2022/01/13 12:38:18;;;;;;;7.23;5.20;;;10.60;94.10;;;;;;5088219;28;20451;-83
2022/01/13 12:40:55;;;;;;;7.47;5.77;;;10.50;93.50;;;;;;5104496;28;20474;-82
2022/01/13 12:43:49;;;;;;;6.23;4.83;;;10.50;92.60;;;;;;5111306;28;20490;-80
2022/01/13 12:46:19;;;;;;;8.50;5.77;;;10.40;90.30;;;;;;5106984;28;20488;-82
2022/01/13 12:48:50;;;;;;;6.43;5.57;;;10.40;91.60;;;;;;5105446;28;20500;-81
2022/01/13 12:51:21;;;;;;;7.00;5.37;;;10.40;91.70;;;;;;5107860;28;20447;-80
2022/01/13 12:53:50;;;;;;;5.53;5.00;;;10.40;91.40;;;;;;5115149;27;20567;-81
2022/01/13 12:56:22;;;;;;;4.43;4.00;;;10.50;92.50;;;;;;5111956;28;20465;-80
2022/01/13 12:58:53;;;;;;;6.43;4.17;;;10.50;92.30;;;;;;5108868;27;21008;-81
2022/01/13 13:01:23;;;;;;;7.10;4.97;;;10.50;93.30;;;;;;5116975;27;20902;-82
2022/01/13 13:03:59;;;;;;;10.57;6.80;;;10.40;92.30;;;;;;5107330;27;20472;-81
2022/01/13 13:06:28;;;;;;;9.37;6.23;;;10.40;95.80;;;;;;5110781;28;20555;-81
2022/01/13 13:09:05;;;;;;;8.40;6.37;;;10.40;91.70;;;;;;5110530;28;20452;-81
2022/01/13 13:11:39;;;;;;;7.70;5.43;;;10.40;90.80;;;;;;5117303;28;20538;-80
2022/01/13 13:14:15;;;;;;;6.60;5.40;;;10.50;92.30;;;;;;5114577;28;20490;-80
2022/01/13 13:16:43;;;;;;;6.00;4.53;;;10.60;93.00;;;;;;5107429;28;20516;-81
2022/01/13 13:19:12;;;;;;;6.60;4.97;;;10.60;92.20;;;;;;5098916;28;20660;-81